Flight Track Log - Related Links

Times and Time Zones

All times are in EDT time to prevent confusion due to time zone crossing. See the DLH808 flight status page for this flight to view local times or setup timezone preferences in your user account.


Time Position Orientation Groundspeed Altitude Reporting Facility
EDT Latitude Longitude Course Direction KTS MPH feet Rate Location/Type
Sun 04:39:00 PM 50.6809 9.0371 26° Northeast  Level Estimated
Sun 04:40:00 PM 50.7897 9.1207 26° Northeast  Level Estimated
Sun 04:41:00 PM 50.8986 9.2048 26° Northeast  Level Estimated
Sun 04:42:00 PM 51.0073 9.2892 26° Northeast  Level Estimated
Sun 04:43:00 PM 51.1160 9.3741 26° Northeast  Level Estimated
Sun 04:44:00 PM 51.2246 9.4593 26° Northeast  Level Estimated
Sun 04:45:00 PM 51.3332 9.5449 26° Northeast  Level Estimated
Sun 04:46:00 PM 51.4417 9.6310 26° Northeast  Level Estimated
Sun 04:47:00 PM 51.5501 9.7174 26° Northeast  Level Estimated
Sun 04:48:00 PM 51.6585 9.8043 26° Northeast  Level Estimated
Sun 04:49:00 PM 51.7668 9.8916 27° Northeast  Level Estimated
Sun 04:50:00 PM 51.8750 9.9793 27° Northeast  Level Estimated
Sun 04:51:00 PM 51.9832 10.0674 27° Northeast  Level Estimated
Sun 04:52:00 PM 52.0913 10.1560 27° Northeast  Level Estimated
Sun 04:53:00 PM 52.1994 10.2450 27° Northeast  Level Estimated
Sun 04:54:00 PM 52.3074 10.3344 27° Northeast  Level Estimated
Sun 04:55:00 PM 52.4153 10.4243 27° Northeast  Level Estimated
Sun 04:56:00 PM 52.5231 10.5146 27° Northeast  Level Estimated
Sun 04:57:00 PM 52.6309 10.6053 27° Northeast  Level Estimated
Sun 04:58:00 PM 52.7386 10.6965 27° Northeast  Level Estimated
Sun 04:59:00 PM 52.8462 10.7882 27° Northeast  Level Estimated
Sun 05:00:00 PM 52.9538 10.8803 27° Northeast  Level Estimated
Sun 05:01:00 PM 53.0613 10.9728 27° Northeast  Level Estimated
Sun 05:02:00 PM 53.1687 11.0658 27° Northeast  Level Estimated
Sun 05:03:00 PM 53.2760 11.1593 28° Northeast  Level Estimated
Sun 05:04:00 PM 53.3833 11.2533 28° Northeast  Level Estimated
Sun 05:05:00 PM 53.4905 11.3477 28° Northeast  Level Estimated
Sun 05:06:00 PM 53.5976 11.4426 28° Northeast  Level Estimated
Sun 05:07:00 PM 53.7047 11.5380 28° Northeast  Level Estimated
Sun 05:08:00 PM 53.8116 11.6339 28° Northeast  Level Estimated
Sun 05:09:00 PM 53.9185 11.7303 28° Northeast  Level Estimated
Sun 05:10:00 PM 54.0254 11.8272 28° Northeast  Level Estimated
Sun 05:11:00 PM 54.1321 11.9245 28° Northeast  Level Estimated
Sun 05:12:00 PM 54.2388 12.0224 28° Northeast  Level Estimated
Sun 05:13:00 PM 54.3453 12.1208 28° Northeast  Level Estimated
Sun 05:14:00 PM 54.4519 12.2197 28° Northeast  Level Estimated
Sun 05:15:00 PM 54.5583 12.3191 28° Northeast  Level Estimated
Sun 05:16:00 PM 54.6646 12.4190 29° Northeast  Level Estimated
Sun 05:17:00 PM 54.7709 12.5194 29° Northeast  Level Estimated
Sun 05:18:00 PM 54.8770 12.6204 29° Northeast  Level Estimated
Sun 05:19:00 PM 54.9831 12.7219 29° Northeast  Level Estimated
Sun 05:20:00 PM 55.0891 12.8240 29° Northeast  Level Estimated
Sun 05:21:00 PM 55.1950 12.9266 29° Northeast  Level Estimated
Sun 05:22:00 PM 55.3009 13.0297 29° Northeast  Level Estimated
Sun 05:23:00 PM 55.4066 13.1334 29° Northeast  Level Estimated
Sun 05:24:00 PM 55.5123 13.2376 29° Northeast  Level Estimated
Sun 05:25:00 PM 55.6178 13.3424 29° Northeast  Level Estimated
Sun 05:26:00 PM 55.7233 13.4478 29° Northeast  Level Estimated
Sun 05:27:00 PM 55.8287 13.5537 29° Northeast  Level Estimated
Sun 05:28:00 PM 55.9340 13.6603 30° Northeast  Level Estimated
Sun 05:29:00 PM 56.0392 13.7674 30° Northeast  Level Estimated
Sun 05:30:00 PM 56.1443 13.8750 30° Northeast  Level Estimated
Sun 05:31:00 PM 56.2493 13.9833 30° Northeast  Level Estimated
Sun 05:32:00 PM 56.3542 14.0922 30° Northeast  Level Estimated
Sun 05:33:00 PM 56.4591 14.2016 30° Northeast  Level Estimated
Sun 05:34:00 PM 56.5638 14.3117 30° Northeast  Level Estimated
Sun 05:35:00 PM 56.6684 14.4224 30° Northeast  Level Estimated
Sun 05:36:00 PM 56.7729 14.5337 30° Northeast  Level Estimated
Sun 05:37:00 PM 56.8774 14.6456 30° Northeast  Level Estimated
Sun 05:38:00 PM 56.9817 14.7582 30° Northeast  Level Estimated
Sun 05:39:00 PM 57.0859 14.8714 31° Northeast  Level Estimated
Sun 05:40:00 PM 57.1901 14.9852 31° Northeast  Level Estimated
Sun 05:41:00 PM 57.2941 15.0996 31° Northeast  Level Estimated
Sun 05:42:00 PM 57.3980 15.2147 31° Northeast  Level Estimated
Sun 05:43:00 PM 57.5018 15.3305 31° Northeast  Level Estimated
Sun 05:44:00 PM 57.6055 15.4469 31° Northeast  Level Estimated
Sun 05:45:00 PM 57.7091 15.5640 31° Northeast  Level Estimated
Sun 05:46:00 PM 57.8126 15.6818 31° Northeast  Level Estimated
Sun 05:47:00 PM 57.9160 15.8002 31° Northeast  Level Estimated
Sun 05:48:00 PM 58.0193 15.9193 31° Northeast  Level Estimated
Sun 05:49:00 PM 58.1224 16.0391 32° Northeast  Level Estimated
Sun 05:50:00 PM 58.2255 16.1597 32° Northeast  Level Estimated
Sun 05:51:00 PM 58.3284 16.2809 32° Northeast  Level Estimated
Sun 05:52:00 PM 58.4312 16.4028 32° Northeast  Level Estimated
Sun 05:53:00 PM 58.5339 16.5254 32° Northeast  Level Estimated
Sun 05:54:00 PM 58.6365 16.6488 32° Northeast  Level Estimated
Sun 05:55:00 PM 58.7389 16.7728 32° Northeast  Level Estimated
Sun 05:56:00 PM 58.8413 16.8976 32° Northeast  Level Estimated
Sun 05:57:00 PM 58.9435 17.0232 32° Northeast  Level Estimated
Sun 05:58:00 PM 59.0456 17.1495 32° Northeast  Level Estimated
Sun 05:59:00 PM 59.1476 17.2765 33° Northeast  Level Estimated
Sun 06:00:00 PM 59.2494 17.4043 33° Northeast  Level Estimated
Sun 06:01:00 PM 59.3511 17.5329 33° Northeast  Level Estimated
Sun 06:02:00 PM 59.4527 17.6623 33° Northeast  Level Estimated
Sun 06:03:00 PM 59.5542 17.7924 33° Northeast  Level Estimated
Sun 06:04:00 PM 59.6519 17.9186 33° Northeast  Level Estimated
Sun 06:05:00 PM 59.6519 17.9186 North  Level Estimated
Sun 06:06:00 PM 59.6519 17.9186 North  Level Estimated
Sun 06:07:00 PM 59.6519 17.9186 North  Level Estimated
Sun 06:08:00 PM 59.6519 17.9186 North  Level Estimated
Sun 06:09:00 PM 59.6519 17.9186 North  Level Estimated
Sun 06:10:00 PM 59.6519 17.9186 North  Level Estimated

Login

Don't have an account? Register now (free) for customized features, flight alerts, and more!